Terminal Aerodrome Forecast
Issued by NWS

Home | Current Version | Previous Version | Graphics & Text | Print | Product List | Glossary On
Versions: 1 2 3 4 5 6 7 8 9 10 11 12 13
000
FTUS43 KFGF 161700
TAFBJI
TAF
KBJI 161738Z 1618/1718 09014G20KT P6SM OVC040
     FM170300 02011KT P6SM BKN050
     FM170900 36009KT P6SM OVC030=

USA.gov is the U.S. government's official web portal to all federal, state and local government web resources and services.